Time;durP1;ratioP1;P1;durP2;ratioP2;P2;SDS_P1;SDS_P2;PMS_P1;PMS_P2;Temp;Humidity;BMP_temperature;BMP_pressure;BME280_temperature;BME280_humidity;BME280_pressure;Samples;Min_cycle;Max_cycle;Signal;HPM_P1;HPM_P2
2021/08/29 00:01:05;;;;;;;;;7.75;7.75;;;;;17.26;74.42;101865.00;5040117;28;45440;-59
2021/08/29 00:03:30;;;;;;;;;10.50;7.00;;;;;17.24;76.45;101869.47;5040488;28;45614;-60
2021/08/29 00:05:56;;;;;;;;;9.25;7.00;;;;;17.19;75.49;101867.91;5040964;28;45356;-59
2021/08/29 00:08:21;;;;;;;;;7.00;7.00;;;;;17.12;75.39;101864.66;5040916;28;45308;-60
2021/08/29 00:10:46;;;;;;;;;6.00;4.75;;;;;17.09;76.11;101858.66;5040674;28;45618;-60
2021/08/29 00:13:12;;;;;;;;;8.25;8.00;;;;;17.06;76.98;101854.38;5038104;28;45495;-60
2021/08/29 00:15:38;;;;;;;;;10.75;6.00;;;;;17.04;77.47;101864.09;5036028;28;45375;-60
2021/08/29 00:18:04;;;;;;;;;7.75;5.75;;;;;16.98;78.19;101848.53;5039465;28;45687;-60
2021/08/29 00:20:30;;;;;;;;;6.75;6.25;;;;;16.96;78.01;101853.00;5039271;28;45452;-61
2021/08/29 00:22:55;;;;;;;;;8.25;6.00;;;;;16.93;77.76;101853.97;5041061;28;46288;-60
2021/08/29 00:25:20;;;;;;;;;10.00;7.50;;;;;16.94;76.75;101857.44;5041177;28;45426;-59
2021/08/29 00:27:46;;;;;;;;;8.50;7.00;;;;;16.92;77.71;101854.00;5041174;28;45381;-59
2021/08/29 00:30:11;;;;;;;;;7.25;5.25;;;;;16.91;77.04;101849.69;5040070;28;45423;-59
2021/08/29 00:32:37;;;;;;;;;12.75;6.00;;;;;16.87;78.04;101850.72;5040155;28;46013;-59
2021/08/29 00:35:02;;;;;;;;;6.00;6.00;;;;;16.84;78.28;101843.81;5039368;28;45535;-59
2021/08/29 00:37:28;;;;;;;;;9.00;6.50;;;;;16.86;77.50;101849.00;5040581;28;45428;-59
2021/08/29 00:39:53;;;;;;;;;8.50;6.75;;;;;16.84;78.42;101846.44;5041084;28;45429;-59
2021/08/29 00:42:18;;;;;;;;;8.25;7.25;;;;;16.82;78.90;101835.13;5040547;28;46027;-59
2021/08/29 00:44:44;;;;;;;;;9.00;6.50;;;;;16.80;78.66;101839.53;5039583;28;45288;-59
2021/08/29 00:47:09;;;;;;;;;9.75;8.00;;;;;16.79;78.57;101837.84;5039819;28;45162;-59
2021/08/29 00:49:39;;;;;;;;;8.25;7.25;;;;;16.80;77.86;101846.56;5038065;28;45363;-60
2021/08/29 00:52:05;;;;;;;;;8.75;7.75;;;;;16.78;78.93;101838.75;5037632;28;45411;-60
2021/08/29 00:54:31;;;;;;;;;10.00;7.25;;;;;16.80;78.49;101849.19;5022781;28;45234;-60
2021/08/29 00:56:58;;;;;;;;;5.50;4.75;;;;;16.80;78.78;101846.56;5040722;28;45274;-60
2021/08/29 00:59:28;;;;;;;;;5.75;5.50;;;;;16.80;80.78;101842.16;5040740;28;45513;-60
2021/08/29 01:02:09;;;;;;;;;10.25;8.00;;;;;16.79;78.79;101834.34;5037864;28;47385;-60
2021/08/29 01:04:43;;;;;;;;;8.75;6.00;;;;;16.78;79.03;101841.38;5040363;28;45240;-59
2021/08/29 01:07:30;;;;;;;;;7.25;5.50;;;;;16.72;81.15;101836.34;5040272;28;45265;-59
2021/08/29 01:10:01;;;;;;;;;8.50;7.00;;;;;16.68;78.66;101835.59;5039643;28;45513;-58
2021/08/29 01:12:28;;;;;;;;;6.75;6.50;;;;;16.67;78.80;101836.53;5039259;28;46777;-59
2021/08/29 01:14:55;;;;;;;;;8.50;7.00;;;;;16.69;79.22;101841.72;5036445;28;45563;-59
2021/08/29 01:17:26;;;;;;;;;12.25;5.25;;;;;16.67;79.57;101835.66;5035151;28;45511;-59
2021/08/29 01:20:13;;;;;;;;;5.50;5.00;;;;;16.67;79.80;101838.28;5038809;28;45431;-60
2021/08/29 01:22:40;;;;;;;;;7.75;6.00;;;;;16.64;80.17;101833.97;5039492;28;45250;-61
2021/08/29 01:25:11;;;;;;;;;8.25;7.00;;;;;16.70;80.30;101843.44;5040168;28;45376;-60
2021/08/29 01:28:01;;;;;;;;;10.00;8.00;;;;;16.66;79.27;101842.69;5040421;28;45312;-60
2021/08/29 01:30:27;;;;;;;;;10.25;7.00;;;;;16.63;81.91;101842.75;5017877;28;45360;-61
2021/08/29 01:32:55;;;;;;;;;11.25;8.50;;;;;16.60;80.37;101837.59;5035777;28;45352;-61
2021/08/29 01:35:22;;;;;;;;;10.75;7.50;;;;;16.59;80.77;101846.38;5040503;28;45464;-62
2021/08/29 01:37:48;;;;;;;;;9.25;8.00;;;;;16.58;81.06;101844.66;5040897;28;45392;-62
2021/08/29 01:40:14;;;;;;;;;9.75;8.50;;;;;16.61;81.43;101841.06;5039852;28;45333;-62
2021/08/29 01:42:40;;;;;;;;;12.25;8.75;;;;;16.61;80.90;101841.06;5040190;28;45232;-63
2021/08/29 01:45:06;;;;;;;;;9.25;8.50;;;;;16.59;81.50;101835.88;5039631;28;45694;-62
2021/08/29 01:47:32;;;;;;;;;9.75;9.25;;;;;16.59;81.97;101832.41;5040692;28;45338;-60
2021/08/29 01:49:58;;;;;;;;;10.25;9.00;;;;;16.58;81.15;101834.16;5048852;28;45289;-60
2021/08/29 01:52:23;;;;;;;;;8.75;8.25;;;;;16.61;81.09;101833.19;5040190;28;45368;-60
2021/08/29 01:54:49;;;;;;;;;9.75;6.00;;;;;16.62;81.46;101832.31;5040427;28;45296;-61
2021/08/29 01:57:14;;;;;;;;;13.00;10.25;;;;;16.65;81.54;101834.84;5040061;28;45440;-61
2021/08/29 01:59:42;;;;;;;;;11.00;8.00;;;;;16.70;80.90;101846.06;5039884;28;45372;-61
2021/08/29 02:02:09;;;;;;;;;13.50;9.25;;;;;16.73;82.15;101845.94;5039815;28;47077;-61
2021/08/29 02:04:35;;;;;;;;;7.00;7.00;;;;;16.70;81.38;101840.81;5039995;28;45240;-61
2021/08/29 02:07:11;;;;;;;;;10.00;9.75;;;;;16.68;82.27;101843.47;5040267;28;45305;-59
2021/08/29 02:09:40;;;;;;;;;10.75;9.75;;;;;16.63;81.60;101852.41;5040016;28;45534;-59
2021/08/29 02:12:08;;;;;;;;;12.75;8.25;;;;;16.58;82.67;101846.44;5013973;28;46928;-59
2021/08/29 02:15:00;;;;;;;;;15.25;13.25;;;;;16.52;82.18;101852.75;5038391;28;45857;-59
2021/08/29 02:17:28;;;;;;;;;9.75;9.75;;;;;16.50;82.35;101856.34;5040170;28;45393;-59
2021/08/29 02:19:55;;;;;;;;;11.25;10.50;;;;;16.47;83.72;101849.44;5039642;28;45309;-60
2021/08/29 02:22:21;;;;;;;;;9.75;9.00;;;;;16.47;82.38;101849.44;5039846;28;46542;-59
2021/08/29 02:24:47;;;;;;;;;13.75;11.75;;;;;16.49;82.39;101858.13;5039653;28;45352;-59
2021/08/29 02:27:15;;;;;;;;;17.00;10.75;;;;;16.55;81.90;101851.78;5039978;28;45476;-59
2021/08/29 02:29:41;;;;;;;;;13.50;11.00;;;;;16.60;81.65;101853.34;5039413;28;45567;-60
2021/08/29 02:32:09;;;;;;;;;12.00;12.00;;;;;16.65;81.32;101859.31;5039780;28;45258;-59
2021/08/29 02:34:36;;;;;;;;;14.75;12.50;;;;;16.67;81.70;101854.91;5018531;28;45424;-59
2021/08/29 02:37:02;;;;;;;;;12.50;11.25;;;;;16.68;81.24;101853.97;5041813;28;45320;-59
2021/08/29 02:39:30;;;;;;;;;18.50;12.75;;;;;16.64;82.31;101852.34;5030280;28;45453;-59
2021/08/29 02:41:56;;;;;;;;;12.75;12.25;;;;;16.66;81.07;101858.44;5039524;28;45426;-59
2021/08/29 02:44:24;;;;;;;;;12.25;10.75;;;;;16.64;81.17;101852.34;5039609;28;45429;-59
2021/08/29 02:46:50;;;;;;;;;17.00;14.00;;;;;16.59;82.41;101848.16;5031218;28;45375;-59
2021/08/29 02:49:20;;;;;;;;;13.50;12.00;;;;;16.49;82.42;101842.38;5039877;28;45429;-59
2021/08/29 02:51:48;;;;;;;;;16.25;13.25;;;;;16.48;82.03;101843.28;5039850;28;46248;-58
2021/08/29 02:54:14;;;;;;;;;16.75;11.00;;;;;16.46;82.20;101847.72;5034427;28;45187;-58
2021/08/29 02:56:41;;;;;;;;;16.00;14.75;;;;;16.42;82.69;101846.13;5043285;28;45267;-58
2021/08/29 02:59:06;;;;;;;;;12.00;11.00;;;;;16.39;82.49;101846.22;5033998;28;45479;-58
2021/08/29 03:01:32;;;;;;;;;11.50;11.00;;;;;16.31;82.44;101846.47;5042602;28;46358;-59
2021/08/29 03:03:57;;;;;;;;;20.50;15.50;;;;;16.28;83.65;101848.34;5042928;28;45317;-59
2021/08/29 03:06:23;;;;;;;;;15.00;11.25;;;;;16.23;83.67;101845.03;5052221;28;45483;-59
2021/08/29 03:08:48;;;;;;;;;10.00;9.75;;;;;16.19;83.37;101849.50;5043036;28;45522;-59
2021/08/29 03:11:14;;;;;;;;;10.75;10.00;;;;;16.15;82.66;101847.03;5042490;28;46102;-59
2021/08/29 03:13:40;;;;;;;;;13.75;9.25;;;;;16.14;83.74;101846.19;5042994;28;45299;-58
2021/08/29 03:16:06;;;;;;;;;8.75;8.75;;;;;16.14;83.64;101843.56;5042666;28;45341;-59
2021/08/29 03:18:33;;;;;;;;;12.50;10.00;;;;;16.11;84.70;101854.16;5050035;28;45439;-59
2021/08/29 03:20:58;;;;;;;;;11.25;9.25;;;;;16.07;83.26;101839.44;5044340;28;45488;-59
2021/08/29 03:23:24;;;;;;;;;13.25;10.00;;;;;16.03;84.07;101838.69;5042747;28;45238;-59
2021/08/29 03:25:49;;;;;;;;;14.00;8.50;;;;;16.01;85.13;101835.22;5042851;28;45399;-59
2021/08/29 03:28:15;;;;;;;;;11.00;8.00;;;;;15.97;84.26;101831.00;5042434;28;45467;-59
2021/08/29 03:30:40;;;;;;;;;11.75;9.75;;;;;15.94;85.57;101825.00;5042209;28;45250;-59
2021/08/29 03:33:05;;;;;;;;;12.00;10.50;;;;;15.87;85.58;101818.25;5042450;28;45347;-59
2021/08/29 03:35:32;;;;;;;;;12.25;9.25;;;;;15.89;83.87;101826.91;5024490;28;45245;-60
2021/08/29 03:37:57;;;;;;;;;15.75;9.00;;;;;15.86;84.81;101824.41;5042446;28;45454;-60
2021/08/29 03:40:24;;;;;;;;;12.50;9.50;;;;;15.84;84.80;101821.81;5042316;28;45522;-60
2021/08/29 03:42:51;;;;;;;;;13.50;8.00;;;;;15.82;85.24;101824.50;5042183;28;45300;-60
2021/08/29 03:45:16;;;;;;;;;11.75;8.75;;;;;15.81;84.96;101819.28;5042182;28;45444;-59
2021/08/29 03:47:42;;;;;;;;;10.50;10.00;;;;;15.81;85.32;101817.50;5050436;28;45597;-58
2021/08/29 03:50:08;;;;;;;;;11.75;10.00;;;;;15.80;86.68;101826.28;5043197;28;47398;-59
2021/08/29 03:52:34;;;;;;;;;13.25;11.50;;;;;15.75;86.06;101822.97;5042157;28;45687;-59
2021/08/29 03:54:59;;;;;;;;;10.00;10.00;;;;;15.71;86.73;101817.88;5042298;28;45248;-59
2021/08/29 03:57:25;;;;;;;;;16.00;11.00;;;;;15.69;85.04;101828.41;5041820;28;45542;-59
2021/08/29 03:59:51;;;;;;;;;9.50;9.00;;;;;15.69;85.30;101819.69;5041957;28;45552;-60
2021/08/29 04:02:16;;;;;;;;;1.50;1.00;;;;;15.68;85.87;101824.06;5041748;28;45436;-60
2021/08/29 04:04:42;;;;;;;;;15.50;10.00;;;;;15.66;86.20;101838.13;5041972;28;45338;-60
2021/08/29 04:07:08;;;;;;;;;11.00;10.75;;;;;15.63;87.80;101833.84;5040188;28;45428;-60
2021/08/29 04:09:35;;;;;;;;;8.50;8.00;;;;;15.61;86.69;101834.75;5041811;28;45388;-59
2021/08/29 04:12:01;;;;;;;;;12.50;10.75;;;;;15.63;86.60;101830.38;5040441;28;47247;-61
2021/08/29 04:14:28;;;;;;;;;10.25;8.50;;;;;15.67;86.77;101832.84;5038964;28;45361;-59
2021/08/29 04:16:55;;;;;;;;;11.00;9.25;;;;;15.69;86.99;101838.03;5042071;28;45233;-59
2021/08/29 04:19:21;;;;;;;;;9.50;8.00;;;;;15.69;86.91;101844.13;5041737;28;45798;-59
2021/08/29 04:21:47;;;;;;;;;13.50;10.75;;;;;15.71;85.83;101839.69;5041748;28;45645;-59
2021/08/29 04:24:13;;;;;;;;;14.50;11.25;;;;;15.77;85.57;101822.91;5041460;28;45293;-59
2021/08/29 04:26:38;;;;;;;;;12.75;11.75;;;;;15.78;85.80;101833.34;5041794;28;45511;-59
2021/08/29 04:29:04;;;;;;;;;12.00;8.00;;;;;15.77;85.89;101831.63;5041454;28;46022;-59
2021/08/29 04:31:32;;;;;;;;;8.75;7.00;;;;;15.75;86.74;101824.72;5034663;28;45349;-61
2021/08/29 04:34:03;;;;;;;;;9.00;8.00;;;;;15.74;86.84;101833.50;5041420;28;45241;-62
2021/08/29 04:36:32;;;;;;;;;13.00;9.75;;;;;15.77;87.23;101828.16;5041459;28;45470;-62
2021/08/29 04:38:59;;;;;;;;;10.25;9.00;;;;;15.79;85.13;101823.72;5041375;28;45248;-60
2021/08/29 04:41:24;;;;;;;;;10.00;7.75;;;;;15.80;86.18;101830.66;5041569;28;45644;-60
2021/08/29 04:43:49;;;;;;;;;9.25;7.75;;;;;15.78;86.49;101830.72;5041329;28;45400;-61
2021/08/29 04:46:15;;;;;;;;;13.25;8.00;;;;;15.74;85.58;101829.09;5041241;28;45249;-61
2021/08/29 04:48:40;;;;;;;;;12.25;6.75;;;;;15.71;85.77;101829.22;5041300;28;46284;-60
2021/08/29 04:51:06;;;;;;;;;12.50;10.25;;;;;15.70;86.27;101837.97;5041108;28;45349;-62
2021/08/29 04:53:31;;;;;;;;;15.50;8.75;;;;;15.69;86.22;101831.03;5039165;28;45482;-61
2021/08/29 04:55:57;;;;;;;;;11.00;8.00;;;;;15.69;87.24;101848.50;5041423;28;45245;-62
2021/08/29 04:58:22;;;;;;;;;11.50;9.75;;;;;15.70;87.19;101837.97;5040810;28;46210;-62
2021/08/29 05:00:47;;;;;;;;;10.75;8.75;;;;;15.73;87.26;101832.63;5023066;28;45341;-62
2021/08/29 05:03:13;;;;;;;;;10.25;9.75;;;;;15.80;85.98;101841.16;5036597;28;45369;-62
2021/08/29 05:05:38;;;;;;;;;13.25;9.00;;;;;15.80;86.99;101831.53;5041282;28;45296;-62
2021/08/29 05:08:03;;;;;;;;;11.50;7.50;;;;;15.80;85.54;101834.16;5040915;28;46424;-63
2021/08/29 05:10:29;;;;;;;;;10.25;7.75;;;;;15.83;87.00;101833.22;5041203;28;45251;-62
2021/08/29 05:12:54;;;;;;;;;13.00;10.00;;;;;15.81;85.79;101838.47;5040221;28;45356;-62
2021/08/29 05:15:20;;;;;;;;;10.75;9.25;;;;;15.88;86.39;101848.78;5039766;28;45446;-62
2021/08/29 05:17:45;;;;;;;;;11.25;8.25;;;;;15.88;86.59;101852.28;5039845;28;45483;-62
2021/08/29 05:20:11;;;;;;;;;9.75;9.75;;;;;15.92;85.54;101846.03;5041162;28;45286;-62
2021/08/29 05:22:36;;;;;;;;;11.75;8.75;;;;;15.99;84.80;101850.16;5040740;28;45428;-62
2021/08/29 05:25:03;;;;;;;;;12.25;8.00;;;;;16.00;85.33;101838.75;5041064;28;45301;-62
2021/08/29 05:27:28;;;;;;;;;13.25;9.50;;;;;16.01;84.78;101844.84;5040462;28;45383;-62
2021/08/29 05:29:53;;;;;;;;;12.50;10.00;;;;;16.04;85.50;101845.63;5040818;28;45420;-62
2021/08/29 05:32:19;;;;;;;;;13.50;11.75;;;;;16.03;84.96;101841.31;5040691;28;45236;-62
2021/08/29 05:34:44;;;;;;;;;11.00;10.50;;;;;16.03;86.05;101841.31;5049070;28;45486;-62
2021/08/29 05:37:10;;;;;;;;;14.50;10.00;;;;;16.07;84.81;101842.06;5033135;28;45228;-61
2021/08/29 05:39:35;;;;;;;;;11.75;11.00;;;;;16.11;85.40;101846.28;5040773;28;45343;-58
2021/08/29 05:42:00;;;;;;;;;10.50;10.50;;;;;16.12;85.66;101843.59;5021942;28;45274;-59
2021/08/29 05:44:26;;;;;;;;;12.00;10.00;;;;;16.15;84.87;101844.41;5027804;28;46136;-58
2021/08/29 05:46:51;;;;;;;;;13.25;13.25;;;;;16.16;84.42;101843.50;5040266;28;46192;-57
2021/08/29 05:49:16;;;;;;;;;10.50;8.25;;;;;16.14;84.49;101840.94;5048714;28;45388;-59
2021/08/29 05:51:42;;;;;;;;;12.50;11.00;;;;;16.16;84.21;101844.34;5040972;28;45305;-58
2021/08/29 05:54:07;;;;;;;;;9.00;9.00;;;;;16.19;84.52;101849.50;5040251;28;45601;-57
2021/08/29 05:56:32;;;;;;;;;11.00;9.75;;;;;16.24;84.62;101852.00;5040380;28;46193;-56
2021/08/29 05:58:58;;;;;;;;;10.75;9.75;;;;;16.25;85.41;101848.47;5038648;28;45371;-57
2021/08/29 06:01:23;;;;;;;;;10.00;9.00;;;;;16.25;84.47;101840.59;5022347;28;45971;-59
2021/08/29 06:03:49;;;;;;;;;9.25;7.75;;;;;16.25;84.93;101838.81;5039869;28;45324;-60
2021/08/29 06:06:15;;;;;;;;;10.25;10.00;;;;;16.25;84.18;101835.34;5040099;28;46173;-59
2021/08/29 06:08:40;;;;;;;;;9.25;7.00;;;;;16.26;83.99;101842.31;5040147;28;45411;-61
2021/08/29 06:11:08;;;;;;;;;9.00;5.50;;;;;16.25;84.12;101837.97;5039862;28;45435;-59
2021/08/29 06:13:34;;;;;;;;;9.25;7.00;;;;;16.30;84.05;101846.53;5013659;28;45572;-58
2021/08/29 06:15:59;;;;;;;;;5.00;4.25;;;;;16.36;84.03;101835.81;5034654;28;45598;-58
2021/08/29 06:18:24;;;;;;;;;11.50;9.00;;;;;16.38;84.27;101841.88;5037377;28;45321;-58
2021/08/29 06:20:50;;;;;;;;;9.50;8.50;;;;;16.37;83.54;101837.53;5037611;28;45394;-60
2021/08/29 06:23:15;;;;;;;;;8.00;8.00;;;;;16.41;83.56;101841.75;5037468;28;45346;-60
2021/08/29 06:25:41;;;;;;;;;10.50;7.50;;;;;16.43;83.58;101837.34;5037633;28;45339;-60
2021/08/29 06:28:06;;;;;;;;;8.00;7.50;;;;;16.45;83.45;101835.53;5038929;28;45538;-60
2021/08/29 06:30:31;;;;;;;;;12.50;8.25;;;;;16.49;83.31;101837.13;5039709;28;45896;-61
2021/08/29 06:32:57;;;;;;;;;8.00;7.00;;;;;16.54;83.39;101837.81;5045562;28;45322;-60
2021/08/29 06:35:22;;;;;;;;;10.25;9.00;;;;;16.61;82.87;101841.06;5047974;28;46180;-60
2021/08/29 06:37:47;;;;;;;;;10.75;7.00;;;;;16.72;82.86;101847.72;5039641;28;45454;-60
2021/08/29 06:40:13;;;;;;;;;8.75;7.00;;;;;16.82;82.55;101850.00;5039768;28;45284;-61
2021/08/29 06:42:41;;;;;;;;;8.50;6.25;;;;;16.87;82.35;101853.34;5039462;28;45560;-60
2021/08/29 06:45:08;;;;;;;;;10.00;8.25;;;;;16.90;82.07;101848.81;5039269;28;46333;-60
2021/08/29 06:47:33;;;;;;;;;8.75;7.50;;;;;16.95;81.85;101861.78;5039434;28;45606;-60
2021/08/29 06:49:58;;;;;;;;;10.00;9.00;;;;;16.93;81.89;101856.59;5042050;28;45477;-60
2021/08/29 06:52:24;;;;;;;;;7.75;6.25;;;;;16.96;81.71;101858.25;5039413;28;45565;-60
2021/08/29 06:54:49;;;;;;;;;8.25;6.50;;;;;16.97;81.48;101857.31;5039347;28;46379;-61
2021/08/29 06:57:14;;;;;;;;;10.00;8.25;;;;;17.06;81.44;101853.53;5039277;28;45269;-61
2021/08/29 06:59:40;;;;;;;;;7.50;7.50;;;;;17.14;81.37;101868.06;5039226;28;45286;-61
2021/08/29 07:02:05;;;;;;;;;11.00;8.75;;;;;17.17;81.19;101860.06;5049127;28;45456;-60
2021/08/29 07:04:31;;;;;;;;;8.25;8.00;;;;;17.24;81.09;101860.72;5048684;28;45565;-60
2021/08/29 07:06:56;;;;;;;;;11.00;10.00;;;;;17.28;80.75;101854.44;5039307;28;45515;-60
2021/08/29 07:09:21;;;;;;;;;9.50;7.00;;;;;17.32;80.47;101859.50;5039619;28;45311;-60
2021/08/29 07:11:47;;;;;;;;;10.25;8.25;;;;;17.38;80.24;101855.78;5038862;28;45426;-59
2021/08/29 07:14:12;;;;;;;;;7.00;4.50;;;;;17.43;80.32;101859.13;5039219;28;45432;-59
2021/08/29 07:16:38;;;;;;;;;8.50;8.00;;;;;17.48;79.77;101859.78;5038424;28;45519;-59
2021/08/29 07:19:03;;;;;;;;;7.50;6.00;;;;;17.49;79.20;101858.03;5048674;28;45311;-60
2021/08/29 07:21:28;;;;;;;;;11.50;9.50;;;;;17.48;79.44;101861.56;5039185;28;45378;-59
2021/08/29 07:23:54;;;;;;;;;10.25;7.50;;;;;17.53;79.31;101854.34;5036219;28;45401;-59
2021/08/29 07:26:19;;;;;;;;;8.75;6.00;;;;;17.60;79.18;101856.66;5039105;28;45327;-60
2021/08/29 07:28:46;;;;;;;;;8.00;8.00;;;;;17.68;78.53;101859.06;5039176;28;45297;-60
2021/08/29 07:31:12;;;;;;;;;7.50;6.00;;;;;17.74;78.51;101852.69;5042533;28;45413;-61
2021/08/29 07:33:37;;;;;;;;;9.00;8.00;;;;;17.85;77.99;101856.63;5025746;28;46419;-58
2021/08/29 07:36:03;;;;;;;;;6.25;5.00;;;;;17.98;76.90;101850.84;5038885;28;45424;-58
2021/08/29 07:38:29;;;;;;;;;6.50;5.75;;;;;18.03;76.74;101848.91;5040785;28;45241;-58
2021/08/29 07:40:54;;;;;;;;;8.25;5.00;;;;;18.09;76.09;101864.44;5042494;28;45649;-60
2021/08/29 07:43:20;;;;;;;;;7.50;7.00;;;;;18.08;75.53;101866.22;5037504;28;45443;-59
2021/08/29 07:45:45;;;;;;;;;6.50;6.50;;;;;18.09;76.11;101856.53;5042000;28;45297;-59
2021/08/29 07:48:10;;;;;;;;;8.50;6.75;;;;;18.13;75.97;101858.13;5028822;28;45241;-59
2021/08/29 07:50:36;;;;;;;;;7.25;6.50;;;;;18.07;75.61;101855.75;5042423;28;45522;-59
2021/08/29 07:53:01;;;;;;;;;6.50;5.75;;;;;18.03;75.91;101865.53;5042276;28;45520;-59
2021/08/29 07:55:27;;;;;;;;;7.75;6.75;;;;;18.03;76.05;101860.28;5042259;28;45375;-59
2021/08/29 07:57:52;;;;;;;;;8.00;6.75;;;;;18.09;76.28;101864.44;5042020;28;45615;-59
2021/08/29 08:00:18;;;;;;;;;8.00;6.75;;;;;18.14;75.54;101862.47;5051059;28;45232;-59
2021/08/29 08:02:43;;;;;;;;;9.00;6.25;;;;;18.09;75.45;101864.44;5041748;28;46341;-59
2021/08/29 08:05:09;;;;;;;;;8.00;7.00;;;;;18.04;75.18;101872.53;5042037;28;45361;-59
2021/08/29 08:07:34;;;;;;;;;5.75;4.75;;;;;18.06;75.41;101869.81;5042248;28;45325;-60
2021/08/29 08:10:00;;;;;;;;;8.00;6.00;;;;;18.08;75.22;101870.63;5041917;28;45261;-60
2021/08/29 08:12:25;;;;;;;;;6.25;5.25;;;;;18.16;75.15;101871.16;5045480;28;45656;-60
2021/08/29 08:14:50;;;;;;;;;6.25;5.00;;;;;18.28;74.93;101864.53;5041672;28;45471;-59
2021/08/29 08:17:16;;;;;;;;;6.50;5.75;;;;;18.40;75.01;101866.63;5041576;28;45577;-62
2021/08/29 08:19:41;;;;;;;;;6.00;4.50;;;;;18.43;73.92;101864.75;5041590;28;45465;-62
2021/08/29 08:22:06;;;;;;;;;7.75;7.75;;;;;18.42;73.74;101867.41;5041627;28;46219;-61
2021/08/29 08:24:32;;;;;;;;;9.00;7.50;;;;;18.39;73.61;101862.28;5041626;28;45354;-62
2021/08/29 08:26:57;;;;;;;;;4.75;4.25;;;;;18.40;73.65;101864.00;5041695;28;45257;-62
2021/08/29 08:29:22;;;;;;;;;9.00;7.00;;;;;18.39;72.87;101865.78;5045150;28;45237;-62
2021/08/29 08:31:48;;;;;;;;;7.00;6.50;;;;;18.48;73.75;101856.66;5047394;28;45431;-62
2021/08/29 08:34:13;;;;;;;;;5.75;5.75;;;;;18.62;72.94;101863.94;5039780;28;45281;-63
2021/08/29 08:36:38;;;;;;;;;6.50;6.00;;;;;18.68;72.83;101861.09;5040121;28;45470;-66
2021/08/29 08:39:04;;;;;;;;;7.50;6.50;;;;;18.79;73.03;101866.72;5039453;28;45344;-64
2021/08/29 08:41:29;;;;;;;;;8.75;8.75;;;;;18.84;72.45;101863.00;5039076;28;45666;-64
2021/08/29 08:43:55;;;;;;;;;9.00;7.25;;;;;18.85;72.39;101861.22;5038808;28;45449;-64
2021/08/29 08:46:21;;;;;;;;;4.75;4.75;;;;;18.92;72.33;101867.91;5028428;28;45474;-63
2021/08/29 08:48:49;;;;;;;;;6.50;6.50;;;;;19.02;70.51;101870.97;5039621;28;45760;-64
2021/08/29 08:51:21;;;;;;;;;6.75;6.00;;;;;19.07;72.11;101871.66;5040249;28;46246;-62
2021/08/29 08:53:50;;;;;;;;;7.75;6.75;;;;;19.07;70.60;101867.25;5041249;28;45463;-62
2021/08/29 08:56:17;;;;;;;;;7.00;5.00;;;;;19.05;69.34;101869.09;5041515;28;45365;-64
2021/08/29 08:58:44;;;;;;;;;8.75;7.00;;;;;19.05;70.83;101860.34;5040508;28;45476;-66
2021/08/29 09:01:10;;;;;;;;;5.00;5.00;;;;;19.04;69.70;101866.53;5037715;28;46380;-66
2021/08/29 09:03:36;;;;;;;;;9.25;6.00;;;;;19.02;70.51;101858.69;5039792;28;45368;-65
2021/08/29 09:06:05;;;;;;;;;4.25;4.25;;;;;19.13;69.53;101868.72;5038455;28;45558;-60
2021/08/29 09:08:31;;;;;;;;;6.25;4.50;;;;;19.20;69.09;101866.66;5036099;28;45553;-62
2021/08/29 09:10:56;;;;;;;;;6.75;6.25;;;;;19.28;70.21;101856.66;5026947;28;47369;-59
2021/08/29 09:13:22;;;;;;;;;6.50;5.50;;;;;19.39;69.49;101859.63;5038486;28;45605;-58
2021/08/29 09:15:47;;;;;;;;;8.50;8.25;;;;;19.49;69.07;101858.28;5039957;28;45179;-58
2021/08/29 09:18:13;;;;;;;;;4.50;4.50;;;;;19.62;69.07;101862.09;5040350;28;45163;-58
2021/08/29 09:20:40;;;;;;;;;6.00;5.00;;;;;19.75;66.36;101859.72;5040731;28;45590;-58
2021/08/29 09:23:06;;;;;;;;;9.25;4.75;;;;;19.78;67.75;101863.97;5022691;28;45329;-59
2021/08/29 09:25:42;;;;;;;;;5.50;5.50;;;;;19.78;66.55;101859.56;5040378;28;45347;-58
2021/08/29 09:28:11;;;;;;;;;6.50;6.00;;;;;19.78;66.90;101859.56;5041054;28;45481;-59
2021/08/29 09:30:42;;;;;;;;;8.00;7.00;;;;;19.83;66.81;101852.31;5039570;28;46087;-60
2021/08/29 09:33:08;;;;;;;;;7.00;6.75;;;;;19.95;67.45;101848.19;5039786;28;45469;-60
2021/08/29 09:35:35;;;;;;;;;3.25;3.25;;;;;20.05;66.47;101852.97;5038163;28;45510;-59
2021/08/29 09:38:02;;;;;;;;;8.75;6.25;;;;;20.12;65.76;101861.41;5040117;28;45492;-59
2021/08/29 09:40:32;;;;;;;;;6.25;6.25;;;;;20.15;65.02;101850.69;5039669;28;45297;-61
2021/08/29 09:42:59;;;;;;;;;7.50;5.50;;;;;20.22;65.85;101849.50;5037493;28;45270;-60
2021/08/29 09:45:45;;;;;;;;;9.50;6.75;;;;;20.33;65.98;101849.78;5040255;28;45381;-60
2021/08/29 09:48:15;;;;;;;;;7.25;6.75;;;;;20.39;64.87;101840.69;5039914;28;45401;-59
2021/08/29 09:50:45;;;;;;;;;5.50;5.50;;;;;20.40;65.74;101846.81;5040101;28;46349;-60
2021/08/29 09:53:15;;;;;;;;;7.00;6.00;;;;;20.33;64.38;101843.66;5040030;28;45740;-58
2021/08/29 09:55:46;;;;;;;;;10.75;8.75;;;;;20.23;64.99;101845.06;5039833;28;45406;-58
2021/08/29 09:58:25;;;;;;;;;7.75;7.75;;;;;20.15;65.33;101849.84;5036330;28;45395;-59
2021/08/29 10:01:13;;;;;;;;;5.50;5.50;;;;;20.09;65.54;101843.09;5036717;28;45530;-62
2021/08/29 10:03:47;;;;;;;;;11.00;8.00;;;;;19.98;65.19;101854.16;5038157;28;45611;-66
2021/08/29 10:06:22;;;;;;;;;12.75;9.75;;;;;19.91;65.89;101850.13;5037826;28;45293;-65
2021/08/29 10:08:59;;;;;;;;;4.00;4.00;;;;;19.90;65.77;101848.44;5039498;28;45525;-65
2021/08/29 10:11:30;;;;;;;;;10.00;8.50;;;;;19.88;65.42;101850.28;5038990;28;46401;-65
2021/08/29 10:13:57;;;;;;;;;7.75;7.25;;;;;19.93;65.80;101842.13;5038950;28;45410;-62
2021/08/29 10:16:23;;;;;;;;;9.00;7.00;;;;;20.00;65.25;101843.53;5039363;28;45344;-64
2021/08/29 10:18:51;;;;;;;;;13.50;11.50;;;;;20.13;66.09;101851.72;5039206;28;45308;-64
2021/08/29 10:21:19;;;;;;;;;10.25;8.25;;;;;20.27;65.44;101842.19;5036858;28;45472;-63
2021/08/29 10:23:47;;;;;;;;;10.50;8.00;;;;;20.45;64.69;101835.16;5020569;28;45893;-67
2021/08/29 10:26:15;;;;;;;;;8.00;7.00;;;;;20.65;65.08;101834.97;5039481;28;45468;-66
2021/08/29 10:28:47;;;;;;;;;8.50;7.75;;;;;20.89;63.66;101830.19;5039266;28;45506;-63
2021/08/29 10:31:17;;;;;;;;;7.50;7.50;;;;;21.11;61.94;101835.16;5038932;28;46223;-64
2021/08/29 10:33:47;;;;;;;;;11.50;8.00;;;;;21.20;63.74;101829.34;5039121;28;45381;-64
2021/08/29 10:36:18;;;;;;;;;11.00;8.50;;;;;21.39;62.76;101845.09;5036001;28;45281;-62
2021/08/29 10:38:45;;;;;;;;;8.50;7.75;;;;;21.36;59.71;101839.13;5039178;28;45422;-63
2021/08/29 10:41:11;;;;;;;;;5.75;5.75;;;;;21.35;59.31;101862.09;5039098;28;46240;-62
2021/08/29 10:43:39;;;;;;;;;8.50;8.00;;;;;21.30;59.87;101835.03;5038725;28;45939;-65
2021/08/29 10:46:11;;;;;;;;;9.00;8.00;;;;;21.38;59.62;101843.41;5038981;28;45293;-65
2021/08/29 10:48:39;;;;;;;;;7.50;7.50;;;;;21.42;60.68;101833.50;5040905;28;45543;-64
2021/08/29 10:51:07;;;;;;;;;8.00;7.00;;;;;21.44;58.63;101824.56;5038763;28;45331;-62
2021/08/29 11:07:45;;;;;;;;;9.50;6.50;;;;;21.68;58.41;101817.03;5165758;27;45571;-54
2021/08/29 11:10:32;;;;;;;;;8.25;7.25;;;;;21.90;59.09;101814.00;5159279;27;45239;-54
2021/08/29 11:12:57;;;;;;;;;7.75;7.75;;;;;22.15;58.84;101814.31;5152932;27;45363;-54
2021/08/29 11:15:37;;;;;;;;;9.00;6.00;;;;;22.24;57.47;101807.63;5151282;27;45212;-54
2021/08/29 11:18:02;;;;;;;;;7.50;6.75;;;;;22.36;58.26;101813.97;5159094;27;46652;-55
2021/08/29 11:20:32;;;;;;;;;7.00;7.00;;;;;22.50;55.56;101808.72;5159054;27;45334;-54
2021/08/29 11:22:58;;;;;;;;;7.50;6.25;;;;;22.44;57.06;101806.44;5159324;27;46292;-54
2021/08/29 11:25:24;;;;;;;;;8.75;7.00;;;;;22.43;56.13;101804.75;5159007;27;45232;-55
2021/08/29 11:28:04;;;;;;;;;8.75;8.25;;;;;22.34;56.19;101807.94;5158759;27;46671;-55
2021/08/29 11:30:35;;;;;;;;;8.25;7.25;;;;;22.14;54.24;101806.47;5156713;27;45254;-55
2021/08/29 11:33:04;;;;;;;;;10.50;8.00;;;;;21.94;55.91;101815.53;5153826;27;45488;-55